Aegean Navigator — SWBI — position and weather

sailwx.info

Track history (hours):
 
Tides and Currents Weather Stations Pressure Air Temp Water Temp Dewpoint Dewpoint Depression Visibility Wind Speed Wind Dir Waves Ship Positions

Aegean Navigator

Last reported at 2016-May-22 02:21 UTC. Time now 2016-May-24 15:49 UTC.
Position N 12°47' W 018°47'.

Length 274 m; draft 9 m.

Type: Ship. MMSI: 240634000.

Date/timePositionNaut miles runAvg speedWind from/ knotsBaromVisibWave heightAir tempDewpointWater temp
2016-May-22 02:21N 12°47' W 018°47'8911.1
2016-May-21 18:22N 14°15' W 018°49'  
2016-May-18 07:33N 27°35' W 014°06'1210.7
2016-May-18 06:26N 27°44' W 013°58'1011.2
2016-May-18 05:32N 27°52' W 013°50'1311.1
2016-May-18 04:24N 28°03' W 013°43'1011.3
2016-May-18 03:31N 28°12' W 013°39'1311.3
2016-May-18 02:24N 28°23' W 013°33'1011.0
2016-May-18 01:31N 28°32' W 013°28'1511.0
2016-May-18 00:10N 28°46' W 013°21'711.0
2016-May-17 23:32N 28°52' W 013°18'53710.7
2016-May-15 21:13N 37°15' W 009°34'2910.8
2016-May-15 18:33N 37°39' W 009°14'1110.6
2016-May-15 17:33N 37°47' W 009°06'1010.2
2016-May-15 16:33N 37°54' W 008°56'4 3.7
2016-May-15 15:33N 37°57' W 008°53'0 0.0
2016-May-15 14:33N 37°57' W 008°53'0 0.0
2016-May-15 13:33N 37°57' W 008°53'0 0.0
2016-May-15 12:33N 37°57' W 008°53'0 0.0
2016-May-15 11:33N 37°57' W 008°53'0 0.0
2016-May-15 10:33N 37°57' W 008°53'0 0.0
2016-May-15 09:33N 37°57' W 008°53'0 0.0
2016-May-15 08:33N 37°57' W 008°53'0 0.0
2016-May-15 07:33N 37°57' W 008°53'0 0.0
2016-May-15 06:33N 37°57' W 008°53'0 0.0
2016-May-15 05:33N 37°57' W 008°53'0 0.0
2016-May-15 04:33N 37°57' W 008°53'0 0.0
2016-May-15 03:33N 37°57' W 008°53'0 0.0
2016-May-15 02:33N 37°57' W 008°53'0 0.0
2016-May-15 01:33N 37°57' W 008°53'0 0.0
2016-May-15 00:33N 37°57' W 008°53'0 0.0
2016-May-14 23:33N 37°57' W 008°53'0 0.0
2016-May-14 22:33N 37°57' W 008°53'0 0.0
2016-May-14 21:33N 37°57' W 008°53'0 0.0
2016-May-14 20:33N 37°57' W 008°53'0 0.0
2016-May-14 19:30N 37°57' W 008°53'0 0.0
2016-May-14 18:33N 37°57' W 008°53'0 0.0
2016-May-14 17:33N 37°57' W 008°53'0 0.0
2016-May-14 16:33N 37°57' W 008°53'0 0.0
2016-May-14 15:33N 37°57' W 008°53'0 0.0
2016-May-14 14:33N 37°57' W 008°53'0 0.0
2016-May-14 13:33N 37°57' W 008°53'0 0.0
2016-May-14 12:33N 37°57' W 008°53'0 0.0
2016-May-14 11:33N 37°57' W 008°53'0 0.0
2016-May-14 10:33N 37°57' W 008°53'0 0.0
2016-May-14 09:30N 37°57' W 008°53'0 0.0
2016-May-14 08:30N 37°57' W 008°53'0 0.0
2016-May-14 07:33N 37°57' W 008°53'0 0.0
2016-May-14 06:33N 37°57' W 008°53'0 0.0
2016-May-14 05:33N 37°57' W 008°53'0 0.0
2016-May-14 04:33N 37°57' W 008°53'0 0.0
2016-May-14 03:33N 37°57' W 008°53'0 0.0
2016-May-14 02:33N 37°57' W 008°53'0 0.0
2016-May-14 01:33N 37°57' W 008°53'0 0.0
2016-May-14 00:33N 37°57' W 008°53'0 0.0
2016-May-13 23:33N 37°57' W 008°53'0 0.0
2016-May-13 22:33N 37°57' W 008°53'0 0.0
2016-May-13 21:33N 37°57' W 008°53'0 0.0
2016-May-13 20:33N 37°57' W 008°53'0 0.0
2016-May-13 19:33N 37°57' W 008°53'0 0.0
2016-May-13 18:33N 37°57' W 008°53'0 0.3
2016-May-13 17:33N 37°57' W 008°53'3 3.3
2016-May-13 16:33N 37°53' W 008°54'3 3.0
2016-May-13 15:33N 37°51' W 008°56'1 0.8
2016-May-13 14:33N 37°52' W 008°56'1 0.8
2016-May-13 13:33N 37°52' W 008°57'2 1.7
2016-May-13 12:33N 37°51' W 008°55'7 6.6
2016-May-13 11:33N 37°44' W 008°57'6 5.6
2016-May-13 10:33N 37°39' W 008°60'8 7.9
2016-May-13 09:32N 37°32' W 009°04'6 5.8
2016-May-13 08:33N 37°27' W 009°08'193 8.8
2016-May-12 10:30N 35°57' W 005°35'7 7.9
2016-May-12 09:33N 35°60' W 005°26'9 8.7
2016-May-12 08:33N 36°02' W 005°16'  
Track history (hours):
 
Tides and Currents Weather Stations Pressure Air Temp Water Temp Dewpoint Dewpoint Depression Visibility Wind Speed Wind Dir Waves Ship Positions

Aegean Navigator

Last reported at 2016-May-22 02:21 UTC. Time now 2016-May-24 15:49 UTC.
Position N 12°47' W 018°47'.

Length 274 m; draft 9 m.

Type: Ship. MMSI: 240634000.

Date/timePositionNaut miles runAvg speedWind from/ knotsBaromVisibWave heightAir tempDewpointWater temp
2016-May-22 02:21N 12°47' W 018°47'8911.1
2016-May-21 18:22N 14°15' W 018°49'  
2016-May-18 07:33N 27°35' W 014°06'1210.7
2016-May-18 06:26N 27°44' W 013°58'1011.2
2016-May-18 05:32N 27°52' W 013°50'1311.1
2016-May-18 04:24N 28°03' W 013°43'1011.3
2016-May-18 03:31N 28°12' W 013°39'1311.3
2016-May-18 02:24N 28°23' W 013°33'1011.0
2016-May-18 01:31N 28°32' W 013°28'1511.0
2016-May-18 00:10N 28°46' W 013°21'711.0
2016-May-17 23:32N 28°52' W 013°18'53710.7
2016-May-15 21:13N 37°15' W 009°34'2910.8
2016-May-15 18:33N 37°39' W 009°14'1110.6
2016-May-15 17:33N 37°47' W 009°06'1010.2
2016-May-15 16:33N 37°54' W 008°56'4 3.7
2016-May-15 15:33N 37°57' W 008°53'0 0.0
2016-May-15 14:33N 37°57' W 008°53'0 0.0
2016-May-15 13:33N 37°57' W 008°53'0 0.0
2016-May-15 12:33N 37°57' W 008°53'0 0.0
2016-May-15 11:33N 37°57' W 008°53'0 0.0
2016-May-15 10:33N 37°57' W 008°53'0 0.0
2016-May-15 09:33N 37°57' W 008°53'0 0.0
2016-May-15 08:33N 37°57' W 008°53'0 0.0
2016-May-15 07:33N 37°57' W 008°53'0 0.0
2016-May-15 06:33N 37°57' W 008°53'0 0.0
2016-May-15 05:33N 37°57' W 008°53'0 0.0
2016-May-15 04:33N 37°57' W 008°53'0 0.0
2016-May-15 03:33N 37°57' W 008°53'0 0.0
2016-May-15 02:33N 37°57' W 008°53'0 0.0
2016-May-15 01:33N 37°57' W 008°53'0 0.0
2016-May-15 00:33N 37°57' W 008°53'0 0.0
2016-May-14 23:33N 37°57' W 008°53'0 0.0
2016-May-14 22:33N 37°57' W 008°53'0 0.0
2016-May-14 21:33N 37°57' W 008°53'0 0.0
2016-May-14 20:33N 37°57' W 008°53'0 0.0
2016-May-14 19:30N 37°57' W 008°53'0 0.0
2016-May-14 18:33N 37°57' W 008°53'0 0.0
2016-May-14 17:33N 37°57' W 008°53'0 0.0
2016-May-14 16:33N 37°57' W 008°53'0 0.0
2016-May-14 15:33N 37°57' W 008°53'0 0.0
2016-May-14 14:33N 37°57' W 008°53'0 0.0
2016-May-14 13:33N 37°57' W 008°53'0 0.0
2016-May-14 12:33N 37°57' W 008°53'0 0.0
2016-May-14 11:33N 37°57' W 008°53'0 0.0
2016-May-14 10:33N 37°57' W 008°53'0 0.0
2016-May-14 09:30N 37°57' W 008°53'0 0.0
2016-May-14 08:30N 37°57' W 008°53'0 0.0
2016-May-14 07:33N 37°57' W 008°53'0 0.0
2016-May-14 06:33N 37°57' W 008°53'0 0.0
2016-May-14 05:33N 37°57' W 008°53'0 0.0
2016-May-14 04:33N 37°57' W 008°53'0 0.0
2016-May-14 03:33N 37°57' W 008°53'0 0.0
2016-May-14 02:33N 37°57' W 008°53'0 0.0
2016-May-14 01:33N 37°57' W 008°53'0 0.0
2016-May-14 00:33N 37°57' W 008°53'0 0.0
2016-May-13 23:33N 37°57' W 008°53'0 0.0
2016-May-13 22:33N 37°57' W 008°53'0 0.0
2016-May-13 21:33N 37°57' W 008°53'0 0.0
2016-May-13 20:33N 37°57' W 008°53'0 0.0
2016-May-13 19:33N 37°57' W 008°53'0 0.0
2016-May-13 18:33N 37°57' W 008°53'0 0.3
2016-May-13 17:33N 37°57' W 008°53'3 3.3
2016-May-13 16:33N 37°53' W 008°54'3 3.0
2016-May-13 15:33N 37°51' W 008°56'1 0.8
2016-May-13 14:33N 37°52' W 008°56'1 0.8
2016-May-13 13:33N 37°52' W 008°57'2 1.7
2016-May-13 12:33N 37°51' W 008°55'7 6.6
2016-May-13 11:33N 37°44' W 008°57'6 5.6
2016-May-13 10:33N 37°39' W 008°60'8 7.9
2016-May-13 09:32N 37°32' W 009°04'6 5.8
2016-May-13 08:33N 37°27' W 009°08'193 8.8
2016-May-12 10:30N 35°57' W 005°35'7 7.9
2016-May-12 09:33N 35°60' W 005°26'9 8.7
2016-May-12 08:33N 36°02' W 005°16'  

Dump ship's entire track history